sensor_id;sensor_type;location;lat;lon;timestamp;P1;durP1;ratioP1;P2;durP2;ratioP2
25948;SDS011;13961;51.178;4.448;2023-03-12T00:00:38;6.82;;;3.35;;
25948;SDS011;13961;51.178;4.448;2023-03-12T00:03:05;8.30;;;3.30;;
25948;SDS011;13961;51.178;4.448;2023-03-12T00:05:30;8.88;;;3.67;;
25948;SDS011;13961;51.178;4.448;2023-03-12T00:07:56;6.90;;;3.28;;
25948;SDS011;13961;51.178;4.448;2023-03-12T00:10:27;9.60;;;3.33;;
25948;SDS011;13961;51.178;4.448;2023-03-12T00:12:55;7.15;;;3.28;;
25948;SDS011;13961;51.178;4.448;2023-03-12T00:15:21;4.25;;;2.65;;
25948;SDS011;13961;51.178;4.448;2023-03-12T00:17:47;8.02;;;3.40;;
25948;SDS011;13961;51.178;4.448;2023-03-12T00:20:13;10.65;;;3.50;;
25948;SDS011;13961;51.178;4.448;2023-03-12T00:22:40;8.93;;;3.42;;
25948;SDS011;13961;51.178;4.448;2023-03-12T00:25:06;7.10;;;3.13;;
25948;SDS011;13961;51.178;4.448;2023-03-12T00:27:35;8.55;;;3.17;;
25948;SDS011;13961;51.178;4.448;2023-03-12T00:30:01;7.38;;;3.22;;
25948;SDS011;13961;51.178;4.448;2023-03-12T00:32:31;7.25;;;3.38;;
25948;SDS011;13961;51.178;4.448;2023-03-12T00:34:57;11.57;;;3.47;;
25948;SDS011;13961;51.178;4.448;2023-03-12T00:37:24;7.25;;;3.25;;
25948;SDS011;13961;51.178;4.448;2023-03-12T00:39:51;6.50;;;3.08;;
25948;SDS011;13961;51.178;4.448;2023-03-12T00:42:17;5.88;;;3.25;;
25948;SDS011;13961;51.178;4.448;2023-03-12T00:44:44;8.88;;;3.63;;
25948;SDS011;13961;51.178;4.448;2023-03-12T00:47:10;7.38;;;3.53;;
25948;SDS011;13961;51.178;4.448;2023-03-12T00:49:36;7.38;;;3.10;;
25948;SDS011;13961;51.178;4.448;2023-03-12T00:52:02;6.50;;;3.33;;
25948;SDS011;13961;51.178;4.448;2023-03-12T00:54:28;9.55;;;3.70;;
25948;SDS011;13961;51.178;4.448;2023-03-12T00:56:54;10.25;;;3.13;;
25948;SDS011;13961;51.178;4.448;2023-03-12T00:59:19;7.03;;;3.28;;
25948;SDS011;13961;51.178;4.448;2023-03-12T01:01:45;7.05;;;3.28;;
25948;SDS011;13961;51.178;4.448;2023-03-12T01:04:11;9.50;;;3.33;;
25948;SDS011;13961;51.178;4.448;2023-03-12T01:06:38;8.85;;;3.00;;
25948;SDS011;13961;51.178;4.448;2023-03-12T01:09:05;7.60;;;3.13;;
25948;SDS011;13961;51.178;4.448;2023-03-12T01:11:33;8.25;;;3.80;;
25948;SDS011;13961;51.178;4.448;2023-03-12T01:14:00;6.68;;;3.22;;
25948;SDS011;13961;51.178;4.448;2023-03-12T01:16:26;9.55;;;3.30;;
25948;SDS011;13961;51.178;4.448;2023-03-12T01:18:54;9.00;;;3.58;;
25948;SDS011;13961;51.178;4.448;2023-03-12T01:21:22;8.75;;;4.28;;
25948;SDS011;13961;51.178;4.448;2023-03-12T01:23:49;7.68;;;3.25;;
25948;SDS011;13961;51.178;4.448;2023-03-12T01:26:15;7.72;;;3.50;;
25948;SDS011;13961;51.178;4.448;2023-03-12T01:28:41;6.65;;;3.42;;
25948;SDS011;13961;51.178;4.448;2023-03-12T01:31:10;7.60;;;3.60;;
25948;SDS011;13961;51.178;4.448;2023-03-12T01:33:37;9.90;;;3.70;;
25948;SDS011;13961;51.178;4.448;2023-03-12T01:36:03;7.43;;;3.72;;
25948;SDS011;13961;51.178;4.448;2023-03-12T01:38:31;10.27;;;3.97;;
25948;SDS011;13961;51.178;4.448;2023-03-12T01:40:57;8.50;;;3.90;;
25948;SDS011;13961;51.178;4.448;2023-03-12T01:43:27;7.00;;;3.75;;
25948;SDS011;13961;51.178;4.448;2023-03-12T01:48:37;9.60;;;3.88;;
25948;SDS011;13961;51.178;4.448;2023-03-12T01:51:06;8.70;;;4.00;;
25948;SDS011;13961;51.178;4.448;2023-03-12T01:53:35;13.55;;;3.88;;
25948;SDS011;13961;51.178;4.448;2023-03-12T01:56:02;10.07;;;3.80;;
25948;SDS011;13961;51.178;4.448;2023-03-12T01:58:30;7.35;;;3.85;;
25948;SDS011;13961;51.178;4.448;2023-03-12T02:00:59;8.70;;;3.65;;
25948;SDS011;13961;51.178;4.448;2023-03-12T02:03:24;8.73;;;3.42;;
25948;SDS011;13961;51.178;4.448;2023-03-12T02:05:55;9.13;;;3.90;;
25948;SDS011;13961;51.178;4.448;2023-03-12T02:08:27;7.13;;;3.47;;
25948;SDS011;13961;51.178;4.448;2023-03-12T02:10:54;7.00;;;3.50;;
25948;SDS011;13961;51.178;4.448;2023-03-12T02:13:19;8.38;;;3.75;;
25948;SDS011;13961;51.178;4.448;2023-03-12T02:15:45;8.32;;;4.03;;
25948;SDS011;13961;51.178;4.448;2023-03-12T02:18:12;6.50;;;3.53;;
25948;SDS011;13961;51.178;4.448;2023-03-12T02:20:46;9.00;;;3.63;;
25948;SDS011;13961;51.178;4.448;2023-03-12T02:25:54;7.57;;;3.83;;
25948;SDS011;13961;51.178;4.448;2023-03-12T02:28:21;9.30;;;3.50;;
25948;SDS011;13961;51.178;4.448;2023-03-12T02:30:51;12.88;;;3.75;;
25948;SDS011;13961;51.178;4.448;2023-03-12T02:33:22;9.52;;;3.53;;
25948;SDS011;13961;51.178;4.448;2023-03-12T02:35:47;6.68;;;3.65;;
25948;SDS011;13961;51.178;4.448;2023-03-12T02:38:33;12.02;;;3.17;;
25948;SDS011;13961;51.178;4.448;2023-03-12T02:41:18;7.10;;;2.53;;
25948;SDS011;13961;51.178;4.448;2023-03-12T02:46:39;8.40;;;2.50;;
25948;SDS011;13961;51.178;4.448;2023-03-12T02:49:07;9.45;;;3.55;;
25948;SDS011;13961;51.178;4.448;2023-03-12T02:51:35;6.60;;;3.00;;
25948;SDS011;13961;51.178;4.448;2023-03-12T02:54:02;6.28;;;2.75;;
25948;SDS011;13961;51.178;4.448;2023-03-12T02:56:29;5.00;;;2.75;;
25948;SDS011;13961;51.178;4.448;2023-03-12T02:58:55;8.32;;;2.83;;
25948;SDS011;13961;51.178;4.448;2023-03-12T03:01:21;5.82;;;2.83;;
25948;SDS011;13961;51.178;4.448;2023-03-12T03:03:47;3.72;;;2.40;;
25948;SDS011;13961;51.178;4.448;2023-03-12T03:06:13;4.85;;;2.72;;
25948;SDS011;13961;51.178;4.448;2023-03-12T03:08:39;8.25;;;3.10;;
25948;SDS011;13961;51.178;4.448;2023-03-12T03:11:05;5.72;;;2.75;;
25948;SDS011;13961;51.178;4.448;2023-03-12T03:13:32;6.45;;;2.83;;
25948;SDS011;13961;51.178;4.448;2023-03-12T03:15:59;3.92;;;2.75;;
25948;SDS011;13961;51.178;4.448;2023-03-12T03:18:27;5.80;;;3.10;;
25948;SDS011;13961;51.178;4.448;2023-03-12T03:20:58;6.95;;;2.78;;
25948;SDS011;13961;51.178;4.448;2023-03-12T03:23:25;4.75;;;2.72;;
25948;SDS011;13961;51.178;4.448;2023-03-12T03:25:51;6.10;;;3.00;;
25948;SDS011;13961;51.178;4.448;2023-03-12T03:28:20;6.47;;;2.58;;
25948;SDS011;13961;51.178;4.448;2023-03-12T03:30:47;5.72;;;2.72;;
25948;SDS011;13961;51.178;4.448;2023-03-12T03:33:13;12.07;;;3.03;;
25948;SDS011;13961;51.178;4.448;2023-03-12T03:35:39;4.53;;;2.67;;
25948;SDS011;13961;51.178;4.448;2023-03-12T03:38:05;10.07;;;3.45;;
25948;SDS011;13961;51.178;4.448;2023-03-12T03:40:31;3.72;;;2.53;;
25948;SDS011;13961;51.178;4.448;2023-03-12T03:42:57;3.25;;;2.35;;
25948;SDS011;13961;51.178;4.448;2023-03-12T03:45:23;7.30;;;2.65;;
25948;SDS011;13961;51.178;4.448;2023-03-12T03:47:48;5.35;;;2.80;;
25948;SDS011;13961;51.178;4.448;2023-03-12T03:50:14;5.82;;;2.67;;
25948;SDS011;13961;51.178;4.448;2023-03-12T03:52:40;5.68;;;2.78;;
25948;SDS011;13961;51.178;4.448;2023-03-12T03:55:06;7.30;;;3.00;;
25948;SDS011;13961;51.178;4.448;2023-03-12T03:57:32;9.23;;;2.90;;
25948;SDS011;13961;51.178;4.448;2023-03-12T03:59:58;4.97;;;2.72;;
25948;SDS011;13961;51.178;4.448;2023-03-12T04:02:24;7.45;;;3.10;;
25948;SDS011;13961;51.178;4.448;2023-03-12T04:04:51;3.63;;;2.40;;
25948;SDS011;13961;51.178;4.448;2023-03-12T04:07:20;4.03;;;2.70;;
25948;SDS011;13961;51.178;4.448;2023-03-12T04:09:46;7.55;;;2.85;;
25948;SDS011;13961;51.178;4.448;2023-03-12T04:12:11;3.83;;;2.63;;
25948;SDS011;13961;51.178;4.448;2023-03-12T04:14:40;7.97;;;2.67;;
25948;SDS011;13961;51.178;4.448;2023-03-12T04:17:06;6.50;;;2.53;;
25948;SDS011;13961;51.178;4.448;2023-03-12T04:19:32;7.95;;;2.72;;
25948;SDS011;13961;51.178;4.448;2023-03-12T04:21:59;8.80;;;2.88;;
25948;SDS011;13961;51.178;4.448;2023-03-12T04:24:25;4.25;;;2.47;;
25948;SDS011;13961;51.178;4.448;2023-03-12T04:26:51;6.53;;;3.00;;
25948;SDS011;13961;51.178;4.448;2023-03-12T04:29:17;9.85;;;2.53;;
25948;SDS011;13961;51.178;4.448;2023-03-12T04:31:44;8.23;;;3.03;;
25948;SDS011;13961;51.178;4.448;2023-03-12T04:34:10;4.50;;;3.00;;
25948;SDS011;13961;51.178;4.448;2023-03-12T04:36:36;8.07;;;2.75;;
25948;SDS011;13961;51.178;4.448;2023-03-12T04:39:01;5.38;;;2.95;;
25948;SDS011;13961;51.178;4.448;2023-03-12T04:41:31;4.75;;;2.45;;
25948;SDS011;13961;51.178;4.448;2023-03-12T04:44:01;6.10;;;2.42;;
25948;SDS011;13961;51.178;4.448;2023-03-12T04:46:28;9.50;;;2.90;;
25948;SDS011;13961;51.178;4.448;2023-03-12T04:48:54;6.13;;;2.95;;
25948;SDS011;13961;51.178;4.448;2023-03-12T04:51:20;6.68;;;2.67;;
25948;SDS011;13961;51.178;4.448;2023-03-12T04:53:46;7.63;;;3.05;;
25948;SDS011;13961;51.178;4.448;2023-03-12T04:56:12;6.53;;;2.70;;
25948;SDS011;13961;51.178;4.448;2023-03-12T04:58:37;7.93;;;2.72;;
25948;SDS011;13961;51.178;4.448;2023-03-12T05:01:03;7.07;;;2.97;;
25948;SDS011;13961;51.178;4.448;2023-03-12T05:03:30;6.55;;;2.90;;
25948;SDS011;13961;51.178;4.448;2023-03-12T05:05:56;8.07;;;3.22;;
25948;SDS011;13961;51.178;4.448;2023-03-12T05:08:22;6.00;;;2.97;;
25948;SDS011;13961;51.178;4.448;2023-03-12T05:10:48;6.50;;;3.25;;
25948;SDS011;13961;51.178;4.448;2023-03-12T05:13:18;6.57;;;2.80;;
25948;SDS011;13961;51.178;4.448;2023-03-12T05:15:45;5.00;;;3.03;;
25948;SDS011;13961;51.178;4.448;2023-03-12T05:18:14;5.25;;;2.90;;
25948;SDS011;13961;51.178;4.448;2023-03-12T05:20:40;8.73;;;3.35;;
25948;SDS011;13961;51.178;4.448;2023-03-12T05:23:06;8.23;;;2.95;;
25948;SDS011;13961;51.178;4.448;2023-03-12T05:25:32;9.20;;;3.15;;
25948;SDS011;13961;51.178;4.448;2023-03-12T05:27:58;6.78;;;3.17;;
25948;SDS011;13961;51.178;4.448;2023-03-12T05:30:23;5.60;;;2.80;;
25948;SDS011;13961;51.178;4.448;2023-03-12T05:32:49;7.20;;;3.25;;
25948;SDS011;13961;51.178;4.448;2023-03-12T05:35:15;7.60;;;3.22;;
25948;SDS011;13961;51.178;4.448;2023-03-12T05:37:40;8.73;;;3.40;;
25948;SDS011;13961;51.178;4.448;2023-03-12T05:40:08;6.43;;;2.83;;
25948;SDS011;13961;51.178;4.448;2023-03-12T05:42:35;9.90;;;3.35;;
25948;SDS011;13961;51.178;4.448;2023-03-12T05:45:01;5.57;;;2.88;;
25948;SDS011;13961;51.178;4.448;2023-03-12T05:47:30;6.50;;;3.05;;
25948;SDS011;13961;51.178;4.448;2023-03-12T05:49:56;6.88;;;3.13;;
25948;SDS011;13961;51.178;4.448;2023-03-12T05:52:22;5.20;;;2.92;;
25948;SDS011;13961;51.178;4.448;2023-03-12T05:54:47;6.85;;;3.67;;
25948;SDS011;13961;51.178;4.448;2023-03-12T05:57:13;8.65;;;3.70;;
25948;SDS011;13961;51.178;4.448;2023-03-12T05:59:39;9.13;;;3.33;;
25948;SDS011;13961;51.178;4.448;2023-03-12T06:02:04;11.38;;;4.20;;
25948;SDS011;13961;51.178;4.448;2023-03-12T06:04:30;9.18;;;3.80;;
25948;SDS011;13961;51.178;4.448;2023-03-12T06:06:56;8.60;;;4.15;;
25948;SDS011;13961;51.178;4.448;2023-03-12T06:09:22;10.32;;;4.47;;
25948;SDS011;13961;51.178;4.448;2023-03-12T06:11:47;9.05;;;3.97;;
25948;SDS011;13961;51.178;4.448;2023-03-12T06:14:13;10.73;;;4.38;;
25948;SDS011;13961;51.178;4.448;2023-03-12T06:16:39;8.73;;;4.78;;
25948;SDS011;13961;51.178;4.448;2023-03-12T06:19:05;15.88;;;5.07;;
25948;SDS011;13961;51.178;4.448;2023-03-12T06:21:33;8.63;;;4.85;;
25948;SDS011;13961;51.178;4.448;2023-03-12T06:24:04;8.25;;;5.15;;
25948;SDS011;13961;51.178;4.448;2023-03-12T06:26:30;7.32;;;5.07;;
25948;SDS011;13961;51.178;4.448;2023-03-12T06:28:56;11.10;;;6.15;;
25948;SDS011;13961;51.178;4.448;2023-03-12T06:31:22;15.82;;;6.45;;
25948;SDS011;13961;51.178;4.448;2023-03-12T06:33:48;13.23;;;6.18;;
25948;SDS011;13961;51.178;4.448;2023-03-12T06:36:14;12.77;;;6.63;;
25948;SDS011;13961;51.178;4.448;2023-03-12T06:38:40;11.88;;;5.95;;
25948;SDS011;13961;51.178;4.448;2023-03-12T06:41:09;13.05;;;6.75;;
25948;SDS011;13961;51.178;4.448;2023-03-12T06:43:37;12.15;;;6.18;;
25948;SDS011;13961;51.178;4.448;2023-03-12T06:46:04;17.05;;;7.88;;
25948;SDS011;13961;51.178;4.448;2023-03-12T06:48:32;13.30;;;7.80;;
25948;SDS011;13961;51.178;4.448;2023-03-12T06:51:01;15.77;;;8.07;;
25948;SDS011;13961;51.178;4.448;2023-03-12T06:53:30;17.23;;;8.50;;
25948;SDS011;13961;51.178;4.448;2023-03-12T06:55:56;16.33;;;9.15;;
25948;SDS011;13961;51.178;4.448;2023-03-12T06:58:22;21.33;;;9.20;;
25948;SDS011;13961;51.178;4.448;2023-03-12T07:00:48;18.40;;;9.25;;
25948;SDS011;13961;51.178;4.448;2023-03-12T07:03:14;21.15;;;10.48;;
25948;SDS011;13961;51.178;4.448;2023-03-12T07:05:42;19.70;;;9.85;;
25948;SDS011;13961;51.178;4.448;2023-03-12T07:08:09;24.08;;;10.07;;
25948;SDS011;13961;51.178;4.448;2023-03-12T07:10:36;21.10;;;10.23;;
25948;SDS011;13961;51.178;4.448;2023-03-12T07:13:02;21.65;;;9.82;;
25948;SDS011;13961;51.178;4.448;2023-03-12T07:15:28;23.00;;;10.43;;
25948;SDS011;13961;51.178;4.448;2023-03-12T07:17:54;22.45;;;10.63;;
25948;SDS011;13961;51.178;4.448;2023-03-12T07:20:19;26.35;;;11.73;;
25948;SDS011;13961;51.178;4.448;2023-03-12T07:22:45;26.27;;;11.30;;
25948;SDS011;13961;51.178;4.448;2023-03-12T07:25:11;19.23;;;10.60;;
25948;SDS011;13961;51.178;4.448;2023-03-12T07:27:36;22.60;;;10.98;;
25948;SDS011;13961;51.178;4.448;2023-03-12T07:30:03;26.95;;;11.38;;
25948;SDS011;13961;51.178;4.448;2023-03-12T07:32:29;31.50;;;13.15;;
25948;SDS011;13961;51.178;4.448;2023-03-12T07:34:57;27.05;;;10.77;;
25948;SDS011;13961;51.178;4.448;2023-03-12T07:37:23;25.08;;;12.02;;
25948;SDS011;13961;51.178;4.448;2023-03-12T07:39:49;26.50;;;11.68;;
25948;SDS011;13961;51.178;4.448;2023-03-12T07:42:17;25.25;;;11.93;;
25948;SDS011;13961;51.178;4.448;2023-03-12T07:44:42;25.35;;;12.15;;
25948;SDS011;13961;51.178;4.448;2023-03-12T07:47:08;24.50;;;12.00;;
25948;SDS011;13961;51.178;4.448;2023-03-12T07:49:34;25.65;;;12.85;;
25948;SDS011;13961;51.178;4.448;2023-03-12T07:52:00;34.33;;;13.38;;
25948;SDS011;13961;51.178;4.448;2023-03-12T07:54:25;32.03;;;13.32;;
25948;SDS011;13961;51.178;4.448;2023-03-12T07:56:55;29.77;;;12.63;;
25948;SDS011;13961;51.178;4.448;2023-03-12T07:59:21;28.73;;;12.63;;
25948;SDS011;13961;51.178;4.448;2023-03-12T08:01:48;34.60;;;13.85;;
25948;SDS011;13961;51.178;4.448;2023-03-12T08:04:14;35.53;;;13.05;;
25948;SDS011;13961;51.178;4.448;2023-03-12T08:06:39;38.13;;;13.75;;
25948;SDS011;13961;51.178;4.448;2023-03-12T08:09:07;37.45;;;13.45;;
25948;SDS011;13961;51.178;4.448;2023-03-12T08:11:33;37.45;;;12.57;;
25948;SDS011;13961;51.178;4.448;2023-03-12T08:14:00;31.92;;;12.20;;
25948;SDS011;13961;51.178;4.448;2023-03-12T08:16:27;39.40;;;13.82;;
25948;SDS011;13961;51.178;4.448;2023-03-12T08:18:54;46.38;;;13.63;;
25948;SDS011;13961;51.178;4.448;2023-03-12T08:21:19;38.78;;;13.35;;
25948;SDS011;13961;51.178;4.448;2023-03-12T08:23:45;38.15;;;13.15;;
25948;SDS011;13961;51.178;4.448;2023-03-12T08:26:11;40.95;;;14.00;;
25948;SDS011;13961;51.178;4.448;2023-03-12T08:28:37;42.30;;;13.60;;
25948;SDS011;13961;51.178;4.448;2023-03-12T08:31:03;47.30;;;12.95;;
25948;SDS011;13961;51.178;4.448;2023-03-12T08:33:29;42.08;;;12.30;;
25948;SDS011;13961;51.178;4.448;2023-03-12T08:35:55;38.13;;;12.25;;
25948;SDS011;13961;51.178;4.448;2023-03-12T08:38:21;46.90;;;13.48;;
25948;SDS011;13961;51.178;4.448;2023-03-12T08:40:53;41.97;;;12.73;;
25948;SDS011;13961;51.178;4.448;2023-03-12T08:43:20;39.15;;;13.57;;
25948;SDS011;13961;51.178;4.448;2023-03-12T08:45:51;44.67;;;13.43;;
25948;SDS011;13961;51.178;4.448;2023-03-12T08:48:21;39.17;;;13.18;;
25948;SDS011;13961;51.178;4.448;2023-03-12T08:50:47;43.42;;;11.85;;
25948;SDS011;13961;51.178;4.448;2023-03-12T08:53:12;43.72;;;12.60;;
25948;SDS011;13961;51.178;4.448;2023-03-12T08:55:39;49.45;;;12.70;;
25948;SDS011;13961;51.178;4.448;2023-03-12T08:58:05;50.45;;;12.65;;
25948;SDS011;13961;51.178;4.448;2023-03-12T09:00:30;45.72;;;11.57;;
25948;SDS011;13961;51.178;4.448;2023-03-12T09:02:56;41.08;;;11.57;;
25948;SDS011;13961;51.178;4.448;2023-03-12T09:05:25;37.78;;;10.82;;
25948;SDS011;13961;51.178;4.448;2023-03-12T09:07:54;30.02;;;9.27;;
25948;SDS011;13961;51.178;4.448;2023-03-12T09:10:21;39.88;;;11.73;;
25948;SDS011;13961;51.178;4.448;2023-03-12T09:12:47;27.60;;;9.07;;
25948;SDS011;13961;51.178;4.448;2023-03-12T09:15:13;33.38;;;9.50;;
25948;SDS011;13961;51.178;4.448;2023-03-12T09:17:38;33.22;;;9.18;;
25948;SDS011;13961;51.178;4.448;2023-03-12T09:20:05;32.13;;;8.75;;
25948;SDS011;13961;51.178;4.448;2023-03-12T09:22:34;30.50;;;7.88;;
25948;SDS011;13961;51.178;4.448;2023-03-12T09:25:03;29.73;;;7.88;;
25948;SDS011;13961;51.178;4.448;2023-03-12T09:27:34;27.98;;;7.55;;
25948;SDS011;13961;51.178;4.448;2023-03-12T09:30:01;28.55;;;6.82;;
25948;SDS011;13961;51.178;4.448;2023-03-12T09:32:27;34.08;;;7.28;;
25948;SDS011;13961;51.178;4.448;2023-03-12T09:34:53;26.40;;;7.00;;
25948;SDS011;13961;51.178;4.448;2023-03-12T09:37:19;25.08;;;6.60;;
25948;SDS011;13961;51.178;4.448;2023-03-12T09:39:48;29.98;;;7.13;;
25948;SDS011;13961;51.178;4.448;2023-03-12T09:42:25;28.80;;;6.18;;
25948;SDS011;13961;51.178;4.448;2023-03-12T09:45:06;28.48;;;5.90;;
25948;SDS011;13961;51.178;4.448;2023-03-12T09:47:50;28.38;;;5.07;;
25948;SDS011;13961;51.178;4.448;2023-03-12T09:50:28;26.15;;;5.88;;
25948;SDS011;13961;51.178;4.448;2023-03-12T09:55:36;26.50;;;5.50;;
25948;SDS011;13961;51.178;4.448;2023-03-12T09:58:18;25.27;;;5.70;;
25948;SDS011;13961;51.178;4.448;2023-03-12T10:01:09;26.25;;;4.53;;
25948;SDS011;13961;51.178;4.448;2023-03-12T10:07:23;24.58;;;4.20;;
25948;SDS011;13961;51.178;4.448;2023-03-12T10:34:49;24.75;;;4.70;;
25948;SDS011;13961;51.178;4.448;2023-03-12T10:37:27;23.83;;;4.53;;
25948;SDS011;13961;51.178;4.448;2023-03-12T10:40:27;21.60;;;4.60;;
25948;SDS011;13961;51.178;4.448;2023-03-12T10:43:01;24.13;;;4.55;;
25948;SDS011;13961;51.178;4.448;2023-03-12T10:48:27;28.02;;;5.07;;
25948;SDS011;13961;51.178;4.448;2023-03-12T10:51:00;28.88;;;5.38;;
25948;SDS011;13961;51.178;4.448;2023-03-12T10:53:29;26.95;;;5.10;;
25948;SDS011;13961;51.178;4.448;2023-03-12T10:56:12;24.65;;;5.15;;
25948;SDS011;13961;51.178;4.448;2023-03-12T10:58:41;23.35;;;4.55;;
25948;SDS011;13961;51.178;4.448;2023-03-12T11:01:15;22.38;;;4.38;;
25948;SDS011;13961;51.178;4.448;2023-03-12T11:03:50;23.23;;;4.18;;
25948;SDS011;13961;51.178;4.448;2023-03-12T11:06:24;23.25;;;4.68;;
25948;SDS011;13961;51.178;4.448;2023-03-12T11:11:36;25.75;;;4.25;;
25948;SDS011;13961;51.178;4.448;2023-03-12T11:14:21;24.92;;;4.68;;
25948;SDS011;13961;51.178;4.448;2023-03-12T11:16:49;28.85;;;4.82;;
25948;SDS011;13961;51.178;4.448;2023-03-12T11:19:33;26.58;;;4.88;;
25948;SDS011;13961;51.178;4.448;2023-03-12T11:22:04;26.88;;;4.57;;
25948;SDS011;13961;51.178;4.448;2023-03-12T11:24:32;25.80;;;4.00;;
25948;SDS011;13961;51.178;4.448;2023-03-12T11:27:01;23.02;;;4.30;;
25948;SDS011;13961;51.178;4.448;2023-03-12T11:30:05;20.55;;;3.70;;
25948;SDS011;13961;51.178;4.448;2023-03-12T11:34:52;22.70;;;4.68;;
25948;SDS011;13961;51.178;4.448;2023-03-12T11:54:20;19.52;;;3.60;;
25948;SDS011;13961;51.178;4.448;2023-03-12T11:56:54;27.30;;;4.97;;
25948;SDS011;13961;51.178;4.448;2023-03-12T12:10:36;27.98;;;5.05;;
25948;SDS011;13961;51.178;4.448;2023-03-12T12:27:28;17.58;;;3.00;;
25948;SDS011;13961;51.178;4.448;2023-03-12T12:30:08;23.02;;;3.33;;
25948;SDS011;13961;51.178;4.448;2023-03-12T12:38:04;24.90;;;3.72;;
25948;SDS011;13961;51.178;4.448;2023-03-12T12:40:54;22.80;;;3.55;;
25948;SDS011;13961;51.178;4.448;2023-03-12T12:43:32;28.10;;;3.65;;
25948;SDS011;13961;51.178;4.448;2023-03-12T12:46:07;33.72;;;4.15;;
25948;SDS011;13961;51.178;4.448;2023-03-12T12:48:37;23.55;;;4.22;;
25948;SDS011;13961;51.178;4.448;2023-03-12T12:51:07;34.83;;;4.43;;
25948;SDS011;13961;51.178;4.448;2023-03-12T12:56:22;26.30;;;3.83;;
25948;SDS011;13961;51.178;4.448;2023-03-12T12:59:33;30.80;;;3.38;;
25948;SDS011;13961;51.178;4.448;2023-03-12T13:01:45;20.60;;;3.85;;
25948;SDS011;13961;51.178;4.448;2023-03-12T13:04:12;25.00;;;3.78;;
25948;SDS011;13961;51.178;4.448;2023-03-12T13:07:03;22.70;;;3.75;;
25948;SDS011;13961;51.178;4.448;2023-03-12T13:09:51;25.05;;;3.90;;
25948;SDS011;13961;51.178;4.448;2023-03-12T13:14:50;16.95;;;2.65;;
25948;SDS011;13961;51.178;4.448;2023-03-12T13:20:20;22.73;;;3.13;;
25948;SDS011;13961;51.178;4.448;2023-03-12T13:30:57;20.73;;;3.55;;
25948;SDS011;13961;51.178;4.448;2023-03-12T13:36:22;22.50;;;3.63;;
25948;SDS011;13961;51.178;4.448;2023-03-12T13:52:30;15.10;;;2.92;;
25948;SDS011;13961;51.178;4.448;2023-03-12T14:00:04;23.00;;;3.50;;
25948;SDS011;13961;51.178;4.448;2023-03-12T14:02:50;19.80;;;3.10;;
25948;SDS011;13961;51.178;4.448;2023-03-12T14:05:19;21.83;;;4.30;;
25948;SDS011;13961;51.178;4.448;2023-03-12T14:13:35;22.52;;;3.47;;
25948;SDS011;13961;51.178;4.448;2023-03-12T14:19:08;20.35;;;3.20;;
25948;SDS011;13961;51.178;4.448;2023-03-12T14:21:38;20.55;;;3.00;;
25948;SDS011;13961;51.178;4.448;2023-03-12T14:24:19;17.55;;;2.88;;
25948;SDS011;13961;51.178;4.448;2023-03-12T14:26:56;23.63;;;3.45;;
25948;SDS011;13961;51.178;4.448;2023-03-12T14:29:42;26.85;;;4.75;;
25948;SDS011;13961;51.178;4.448;2023-03-12T14:32:19;22.48;;;3.58;;
25948;SDS011;13961;51.178;4.448;2023-03-12T14:37:35;22.08;;;3.20;;
25948;SDS011;13961;51.178;4.448;2023-03-12T14:40:16;21.98;;;3.28;;
25948;SDS011;13961;51.178;4.448;2023-03-12T14:43:00;27.38;;;3.80;;
25948;SDS011;13961;51.178;4.448;2023-03-12T14:45:26;27.38;;;3.63;;
25948;SDS011;13961;51.178;4.448;2023-03-12T14:47:54;19.77;;;3.15;;
25948;SDS011;13961;51.178;4.448;2023-03-12T14:50:23;21.88;;;3.63;;
25948;SDS011;13961;51.178;4.448;2023-03-12T14:52:51;25.20;;;3.75;;
25948;SDS011;13961;51.178;4.448;2023-03-12T14:55:19;17.80;;;3.00;;
25948;SDS011;13961;51.178;4.448;2023-03-12T14:57:47;21.30;;;3.47;;
25948;SDS011;13961;51.178;4.448;2023-03-12T15:00:21;22.98;;;3.08;;
25948;SDS011;13961;51.178;4.448;2023-03-12T15:02:51;18.15;;;2.47;;
25948;SDS011;13961;51.178;4.448;2023-03-12T15:05:19;11.88;;;2.80;;
25948;SDS011;13961;51.178;4.448;2023-03-12T15:07:46;19.08;;;3.17;;
25948;SDS011;13961;51.178;4.448;2023-03-12T15:12:51;20.98;;;3.85;;
25948;SDS011;13961;51.178;4.448;2023-03-12T15:15:27;21.40;;;3.63;;
25948;SDS011;13961;51.178;4.448;2023-03-12T15:17:54;21.52;;;3.28;;
25948;SDS011;13961;51.178;4.448;2023-03-12T15:20:20;21.63;;;2.95;;
25948;SDS011;13961;51.178;4.448;2023-03-12T15:22:48;16.50;;;2.50;;
25948;SDS011;13961;51.178;4.448;2023-03-12T15:25:22;21.35;;;3.30;;
25948;SDS011;13961;51.178;4.448;2023-03-12T15:30:31;24.40;;;3.45;;
25948;SDS011;13961;51.178;4.448;2023-03-12T15:33:03;20.15;;;2.92;;
25948;SDS011;13961;51.178;4.448;2023-03-12T15:35:42;21.80;;;3.80;;
25948;SDS011;13961;51.178;4.448;2023-03-12T15:38:26;14.63;;;2.75;;
25948;SDS011;13961;51.178;4.448;2023-03-12T15:40:52;23.73;;;3.17;;
25948;SDS011;13961;51.178;4.448;2023-03-12T15:43:21;20.25;;;3.85;;
25948;SDS011;13961;51.178;4.448;2023-03-12T15:45:57;15.13;;;2.80;;
25948;SDS011;13961;51.178;4.448;2023-03-12T15:48:31;24.55;;;3.63;;
25948;SDS011;13961;51.178;4.448;2023-03-12T15:51:11;19.35;;;3.42;;
25948;SDS011;13961;51.178;4.448;2023-03-12T15:53:39;19.05;;;4.15;;
25948;SDS011;13961;51.178;4.448;2023-03-12T15:58:34;21.52;;;3.47;;
25948;SDS011;13961;51.178;4.448;2023-03-12T16:01:05;27.38;;;3.17;;
25948;SDS011;13961;51.178;4.448;2023-03-12T16:03:33;22.20;;;3.13;;
25948;SDS011;13961;51.178;4.448;2023-03-12T16:05:59;23.08;;;3.83;;
25948;SDS011;13961;51.178;4.448;2023-03-12T16:08:32;26.27;;;3.22;;
25948;SDS011;13961;51.178;4.448;2023-03-12T16:11:08;16.55;;;3.17;;
25948;SDS011;13961;51.178;4.448;2023-03-12T16:13:41;29.83;;;4.25;;
25948;SDS011;13961;51.178;4.448;2023-03-12T16:16:09;23.27;;;3.47;;
25948;SDS011;13961;51.178;4.448;2023-03-12T16:18:37;20.70;;;3.80;;
25948;SDS011;13961;51.178;4.448;2023-03-12T16:21:03;28.30;;;4.38;;
25948;SDS011;13961;51.178;4.448;2023-03-12T16:23:29;23.67;;;3.53;;
25948;SDS011;13961;51.178;4.448;2023-03-12T16:25:55;19.95;;;2.80;;
25948;SDS011;13961;51.178;4.448;2023-03-12T16:28:22;20.58;;;3.33;;
25948;SDS011;13961;51.178;4.448;2023-03-12T16:30:49;25.02;;;3.78;;
25948;SDS011;13961;51.178;4.448;2023-03-12T16:33:16;19.60;;;3.40;;
25948;SDS011;13961;51.178;4.448;2023-03-12T16:35:44;19.70;;;3.63;;
25948;SDS011;13961;51.178;4.448;2023-03-12T16:38:11;18.90;;;3.30;;
25948;SDS011;13961;51.178;4.448;2023-03-12T16:40:38;23.25;;;3.58;;
25948;SDS011;13961;51.178;4.448;2023-03-12T16:43:13;21.60;;;3.75;;
25948;SDS011;13961;51.178;4.448;2023-03-12T16:45:43;22.80;;;3.67;;
25948;SDS011;13961;51.178;4.448;2023-03-12T16:48:12;27.02;;;3.80;;
25948;SDS011;13961;51.178;4.448;2023-03-12T16:50:42;19.77;;;3.20;;
25948;SDS011;13961;51.178;4.448;2023-03-12T16:53:11;26.88;;;3.80;;
25948;SDS011;13961;51.178;4.448;2023-03-12T16:56:12;28.17;;;4.25;;
25948;SDS011;13961;51.178;4.448;2023-03-12T17:00:57;22.55;;;4.00;;
25948;SDS011;13961;51.178;4.448;2023-03-12T17:03:33;21.00;;;3.45;;
25948;SDS011;13961;51.178;4.448;2023-03-12T17:06:03;21.08;;;3.28;;
25948;SDS011;13961;51.178;4.448;2023-03-12T17:08:30;27.27;;;4.03;;
25948;SDS011;13961;51.178;4.448;2023-03-12T17:10:56;27.80;;;4.40;;
25948;SDS011;13961;51.178;4.448;2023-03-12T17:13:24;21.45;;;3.58;;
25948;SDS011;13961;51.178;4.448;2023-03-12T17:15:53;23.08;;;3.42;;
25948;SDS011;13961;51.178;4.448;2023-03-12T17:18:19;20.40;;;3.42;;
25948;SDS011;13961;51.178;4.448;2023-03-12T17:20:46;24.77;;;3.88;;
25948;SDS011;13961;51.178;4.448;2023-03-12T17:23:13;27.35;;;3.95;;